Pagrindinis puslapis
METAR-TAF:

METAR-TAF

Oro uostai :

Ann Arbor, Mičiganas, Jungtinės Amerikos Valstijos

platuma: 42-13-26N, ilguma: 083-44-24W, Aukštis: 255 m

Dabartinis oras

Ataskaita buvo paskelbta 17 minutes, ne 03:38 UTC
Vėjas 3 kt iš Pietvakarių
Temperatūra 8°C
Drėgmė 100%
Slėgis 1018 hPa
Matomumas: 4.8 km
Giedras dangus
rūkana

METAR: KARB 230338Z AUTO 23003KT 3SM BR CLR 08/08 A3007 RMK AO2 T00830078

Laikas: 23:55 (03:55 UTC)


TAF: trūkstamas

Orai ataskaitas ir orų prognozės (METAR, TAF).

turimą stotys yra geltonos ir raudonos taškus žemėlapyje.

Perkelti pele per norėdami pamatyti stoties vardą.

Tada spustelėkite, norėdami matyti oro stebėjimo ir prognozės.

Norėdami pakeisti žemėlapį: spustelėkite ant žalios mygtukų su juodo kryžiaus žemyn,; žalią mygtuką su brūkšneliu, jei norite nutolinti; arba žalių rodyklių gretimoms žemėlapius.


METAR-TAF: